createdAt,value
2022-10-02T00:03:04.283Z,2.70
2022-10-02T00:09:11.324Z,2.60
2022-10-02T00:15:29.206Z,3.17
2022-10-02T00:28:35.320Z,3.50
2022-10-02T00:34:47.984Z,3.90
2022-10-02T00:41:06.047Z,3.43
2022-10-02T00:47:32.166Z,3.60
2022-10-02T00:53:40.604Z,3.37
2022-10-02T01:00:03.933Z,2.60
2022-10-02T01:06:07.574Z,2.90
2022-10-02T01:12:09.941Z,3.20
2022-10-02T01:18:15.030Z,3.30
2022-10-02T01:24:26.964Z,2.20
2022-10-02T01:30:31.473Z,2.47
2022-10-02T01:36:35.611Z,2.50
2022-10-02T01:42:40.343Z,3.20
2022-10-02T01:48:48.151Z,3.27
2022-10-02T01:55:26.157Z,2.77
2022-10-02T02:01:54.401Z,2.20
2022-10-02T02:08:05.683Z,2.00
2022-10-02T02:14:31.184Z,2.07
2022-10-02T02:33:59.938Z,3.37
2022-10-02T02:40:33.088Z,3.07
2022-10-02T02:47:23.710Z,1.70
2022-10-02T02:53:32.981Z,1.63
2022-10-02T02:59:44.736Z,1.27
2022-10-02T03:06:19.216Z,1.23
2022-10-02T03:13:16.221Z,1.07
2022-10-02T03:19:43.701Z,1.00
2022-10-02T03:26:08.472Z,0.80
2022-10-02T03:32:19.045Z,0.80
2022-10-02T03:38:24.358Z,0.97
2022-10-02T03:44:28.931Z,1.70
2022-10-02T03:50:40.953Z,2.00
2022-10-02T03:56:59.185Z,2.10
2022-10-02T04:03:09.533Z,2.40
2022-10-02T04:09:19.115Z,2.23
2022-10-02T04:15:48.524Z,2.30
2022-10-02T04:22:01.379Z,2.13
2022-10-02T04:28:12.020Z,2.97
2022-10-02T04:34:18.461Z,3.17
2022-10-02T04:40:39.955Z,3.03
2022-10-02T04:46:48.055Z,2.47
2022-10-02T04:53:27.408Z,2.70
2022-10-02T05:00:05.348Z,2.77
2022-10-02T05:06:28.941Z,3.67
2022-10-02T05:13:13.046Z,2.60
2022-10-02T05:19:33.292Z,2.93
2022-10-02T05:25:47.215Z,2.50
2022-10-02T05:32:27.205Z,2.20
2022-10-02T05:38:57.290Z,2.00
2022-10-02T05:45:17.018Z,2.23
2022-10-02T05:51:49.718Z,1.47
2022-10-02T05:58:22.894Z,1.60
2022-10-02T06:04:46.409Z,1.57
2022-10-02T06:10:58.057Z,1.07
2022-10-02T06:17:09.139Z,0.87
2022-10-02T06:23:37.350Z,0.97
2022-10-02T06:30:13.916Z,1.13
2022-10-02T06:36:27.990Z,1.10
2022-10-02T06:42:42.084Z,0.87
2022-10-02T06:48:54.749Z,0.97
2022-10-02T07:02:23.012Z,0.73
2022-10-02T07:08:28.673Z,0.50
2022-10-02T07:15:25.736Z,0.53
2022-10-02T07:21:42.640Z,0.60
2022-10-02T07:28:12.561Z,0.50
2022-10-02T07:41:12.783Z,0.50
2022-10-02T07:54:58.527Z,0.40
2022-10-02T08:01:23.607Z,0.30
2022-10-02T08:14:22.544Z,0.50
2022-10-02T08:20:30.466Z,0.80
2022-10-02T08:26:54.170Z,1.10
2022-10-02T08:33:19.475Z,1.70
2022-10-02T08:39:36.520Z,1.30
2022-10-02T08:46:10.905Z,1.30
2022-10-02T09:05:35.660Z,1.30
2022-10-02T09:12:24.444Z,0.60
2022-10-02T09:19:02.586Z,1.07
2022-10-02T10:27:01.183Z,0.47
2022-10-02T10:33:44.390Z,0.40
2022-10-02T11:06:46.172Z,0.70
2022-10-02T11:19:54.452Z,0.40
2022-10-02T12:45:19.230Z,0.27
2022-10-02T14:57:01.192Z,3.40
2022-10-02T16:49:16.895Z,0.80
